Wednesday, June 20, 2018, 2:52 PM GMT
Back to Local

CYQI, Yarmouth, N. S.

Location: , , Canada Lat: 43.833
Local Time: 2:52 PM GMT (14:52 GMT) Lon: -66.083
Time Zone: GMT Elev: 141 ft

Show me the last for .
Show Coded

Time T Td Feel RH Dir Speed Gust Alt SLP Vis Weather Sky Remarks
2018-06-20 14:00 64 48 - 55 270° 8 - 29.84 29.84 15 BKN250 None
2018-06-20 13:00 63 50 - 63 270° 9 - 29.84 29.85 15 BKN250 None
2018-06-20 12:00 63 50 - 63 290° 9 - 29.84 29.85 15 BKN250 None
2018-06-20 11:00 59 50 - 72 280° 8 - 29.83 29.83 15 FEW250 None
2018-06-20 10:00 54 50 - 87 270° 9 - 29.82 29.83 15 CLR None
2018-06-20 09:00 50 46 47 87 270° 8 - 29.81 29.81 15 CLR None
2018-06-20 08:00 50 46 47 87 270° 7 - 29.80 29.80 15 CLR None
2018-06-20 06:00 50 48 47 93 280° 8 - 29.79 29.80 15 CLR None
2018-06-20 04:00 55 46 - 71 340° 5 - 29.78 29.78 15 CLR None
2018-06-20 03:00 52 50 - 93 300° 8 - 29.78 29.78 15 FEW260 None
2018-06-20 02:00 52 48 - 87 270° 7 - 29.76 29.76 15 FEW260 None
2018-06-20 01:00 54 50 - 87 280° 8 - 29.74 29.74 15 FEW250 None
2018-06-20 00:00 54 50 - 87 270° 9 - 29.70 29.70 15 FEW260 None
2018-06-19 23:00 61 50 - 67 300° 7 - 29.68 29.69 15 FEW250 None
2018-06-19 22:00 64 50 - 59 300° 10 - 29.66 29.67 15 FEW020 FEW250 None
2018-06-19 21:00 68 52 - 56 330° 12 21 29.65 29.65 15 FEW020 FEW250 None
2018-06-19 20:00 66 54 - 63 310° 14 - 29.64 29.64 15 FEW020 FEW250 None
2018-06-19 19:00 64 54 - 67 290° 12 - 29.63 29.63 15 FEW020 FEW250 None
2018-06-19 18:00 66 55 - 68 310° 14 22 29.62 29.63 15 FEW020 FEW250 None
2018-06-19 17:00 66 57 - 72 280° 14 25 29.61 29.61 15 FEW020 FEW250 None
2018-06-19 16:00 68 59 - 72 330° 15 25 29.60 29.61 15 FEW018 FEW250 None
2018-06-19 15:00 68 59 - 72 340° 21 30 29.60 29.61 15 FEW018 FEW250 None

Support USWX by starting your Amazon purchase here.